createdAt,value
2022-09-12T00:00:03.846Z,89
2022-09-12T00:01:00.443Z,89
2022-09-12T00:02:00.530Z,89
2022-09-12T00:03:00.452Z,89
2022-09-12T00:04:02.044Z,89
2022-09-12T00:05:03.391Z,89
2022-09-12T00:06:00.557Z,89
2022-09-12T00:07:00.469Z,89
2022-09-12T00:08:00.535Z,89
2022-09-12T00:09:00.488Z,89
2022-09-12T00:10:04.820Z,89
2022-09-12T00:11:00.493Z,89
2022-09-12T00:12:00.610Z,90
2022-09-12T00:13:00.514Z,90
2022-09-12T00:14:00.559Z,90
2022-09-12T00:15:03.492Z,89
2022-09-12T00:16:00.586Z,89
2022-09-12T00:17:00.539Z,89
2022-09-12T00:18:02.201Z,89
2022-09-12T00:19:00.553Z,89
2022-09-12T00:20:03.733Z,89
2022-09-12T00:21:00.591Z,89
2022-09-12T00:22:00.657Z,89
2022-09-12T00:23:00.589Z,89
2022-09-12T00:24:00.855Z,89
2022-09-12T00:25:03.472Z,89
2022-09-12T00:26:00.694Z,89
2022-09-12T00:27:00.624Z,89
2022-09-12T00:28:00.685Z,89
2022-09-12T00:29:00.630Z,89
2022-09-12T00:30:04.183Z,89
2022-09-12T00:31:00.652Z,89
2022-09-12T00:32:02.031Z,89
2022-09-12T00:33:00.667Z,90
2022-09-12T00:34:00.798Z,90
2022-09-12T00:35:03.543Z,90
2022-09-12T00:36:00.777Z,90
2022-09-12T00:37:00.689Z,90
2022-09-12T00:38:00.770Z,90
2022-09-12T00:39:00.704Z,90
2022-09-12T00:40:04.120Z,90
2022-09-12T00:41:00.719Z,90
2022-09-12T00:42:00.987Z,90
2022-09-12T00:43:00.766Z,90
2022-09-12T00:44:00.807Z,90
2022-09-12T00:45:04.243Z,90
2022-09-12T00:46:02.335Z,90
2022-09-12T00:47:00.793Z,90
2022-09-12T00:48:00.891Z,90
2022-09-12T00:49:00.787Z,90
2022-09-12T00:50:03.961Z,90
2022-09-12T00:51:00.811Z,90
2022-09-12T00:52:00.881Z,90
2022-09-12T00:53:00.825Z,90
2022-09-12T00:54:00.926Z,90
2022-09-12T00:55:03.924Z,90
2022-09-12T00:56:00.916Z,90
2022-09-12T00:57:00.858Z,90
2022-09-12T00:58:00.930Z,90
2022-09-12T00:59:00.869Z,90
2022-09-12T01:00:04.149Z,90
2022-09-12T01:01:01.063Z,90
2022-09-12T01:02:01.128Z,90
2022-09-12T01:03:00.911Z,90
2022-09-12T01:04:00.980Z,90
2022-09-12T01:05:03.914Z,90
2022-09-12T01:06:01.001Z,90
2022-09-12T01:07:00.938Z,90
2022-09-12T01:08:01.012Z,90
2022-09-12T01:09:00.958Z,90
2022-09-12T01:10:04.271Z,90
2022-09-12T01:11:00.961Z,90
2022-09-12T01:12:01.036Z,90
2022-09-12T01:13:00.985Z,90
2022-09-12T01:14:02.396Z,90
2022-09-12T01:15:04.029Z,90
2022-09-12T01:16:01.101Z,90
2022-09-12T01:17:01.010Z,90
2022-09-12T01:18:01.084Z,90
2022-09-12T01:19:01.014Z,90
2022-09-12T01:20:04.509Z,90
2022-09-12T01:21:01.045Z,90
2022-09-12T01:22:01.147Z,90
2022-09-12T01:23:01.049Z,90
2022-09-12T01:24:01.134Z,90
2022-09-12T01:25:03.931Z,90
2022-09-12T01:26:01.136Z,90
2022-09-12T01:27:01.084Z,90
2022-09-12T01:28:02.619Z,90
2022-09-12T01:29:01.091Z,90
2022-09-12T01:30:05.509Z,90
2022-09-12T01:31:01.103Z,90
2022-09-12T01:32:01.191Z,90
2022-09-12T01:33:01.125Z,90
2022-09-12T01:34:01.220Z,90
2022-09-12T01:35:04.009Z,90
2022-09-12T01:36:01.207Z,90
2022-09-12T01:37:01.144Z,90
2022-09-12T01:38:01.220Z,90
2022-09-12T01:39:01.169Z,90
2022-09-12T01:40:06.215Z,90
2022-09-12T01:41:00.184Z,90
2022-09-12T01:42:02.737Z,90
2022-09-12T01:43:00.197Z,90
2022-09-12T01:44:00.273Z,90
2022-09-12T01:45:03.045Z,90
2022-09-12T01:46:00.518Z,90
2022-09-12T01:47:00.229Z,90
2022-09-12T01:48:00.307Z,90
2022-09-12T01:49:00.244Z,90
2022-09-12T01:50:03.494Z,90
2022-09-12T01:51:00.273Z,90
2022-09-12T01:52:00.339Z,90
2022-09-12T01:53:00.264Z,90
2022-09-12T01:54:00.352Z,90
2022-09-12T01:55:07.683Z,90
2022-09-12T01:56:00.339Z,90
2022-09-12T01:57:00.309Z,90
2022-09-12T01:58:00.406Z,90
2022-09-12T01:59:00.317Z,90
2022-09-12T02:00:03.659Z,90
2022-09-12T02:01:00.415Z,90
2022-09-12T02:02:00.497Z,91
2022-09-12T02:03:00.367Z,91
2022-09-12T02:04:00.450Z,91
2022-09-12T02:05:03.168Z,91
2022-09-12T02:06:00.463Z,91
2022-09-12T02:07:00.393Z,91
2022-09-12T02:08:00.461Z,91
2022-09-12T02:09:00.416Z,91
2022-09-12T02:10:03.780Z,91
2022-09-12T02:11:00.430Z,91
2022-09-12T02:12:00.511Z,91
2022-09-12T02:13:00.442Z,91
2022-09-12T02:14:00.519Z,91
2022-09-12T02:15:03.226Z,91
2022-09-12T02:16:00.563Z,91
2022-09-12T02:17:00.466Z,91
2022-09-12T02:18:02.983Z,91
2022-09-12T02:19:00.482Z,91
2022-09-12T02:20:04.800Z,91
2022-09-12T02:21:00.493Z,91
2022-09-12T02:22:00.593Z,91
2022-09-12T02:23:00.499Z,91
2022-09-12T02:24:00.585Z,91
2022-09-12T02:25:03.508Z,91
2022-09-12T02:26:00.591Z,91
2022-09-12T02:27:00.559Z,91
2022-09-12T02:28:00.642Z,91
2022-09-12T02:29:00.542Z,91
2022-09-12T02:30:03.715Z,91
2022-09-12T02:31:00.631Z,91
2022-09-12T02:32:00.627Z,91
2022-09-12T02:33:00.576Z,91
2022-09-12T02:34:00.696Z,91
2022-09-12T02:35:04.148Z,91
2022-09-12T02:36:01.916Z,91
2022-09-12T02:37:00.604Z,91
2022-09-12T02:38:00.668Z,91
2022-09-12T02:39:00.636Z,91
2022-09-12T02:40:03.838Z,91
2022-09-12T02:41:00.624Z,91
2022-09-12T02:42:00.712Z,91
2022-09-12T02:43:00.641Z,91
2022-09-12T02:44:00.717Z,91
2022-09-12T02:45:04.775Z,91
2022-09-12T02:46:00.811Z,91
2022-09-12T02:47:00.677Z,91
2022-09-12T02:48:00.736Z,91
2022-09-12T02:49:00.691Z,91
2022-09-12T02:50:04.080Z,91
2022-09-12T02:51:00.738Z,91
2022-09-12T02:52:00.762Z,91
2022-09-12T02:53:00.703Z,91
2022-09-12T02:54:00.792Z,91
2022-09-12T02:55:03.705Z,91
2022-09-12T02:56:00.794Z,91
2022-09-12T02:57:00.770Z,91
2022-09-12T02:58:00.833Z,91
2022-09-12T02:59:00.754Z,91
2022-09-12T03:00:04.187Z,91
2022-09-12T03:01:00.835Z,91
2022-09-12T03:02:00.925Z,91
2022-09-12T03:03:00.836Z,91
2022-09-12T03:04:01.918Z,91
2022-09-12T03:05:03.736Z,91
2022-09-12T03:06:00.926Z,91
2022-09-12T03:07:00.828Z,91
2022-09-12T03:08:00.917Z,91
2022-09-12T03:09:00.883Z,91
2022-09-12T03:10:04.117Z,91
2022-09-12T03:11:00.853Z,91
2022-09-12T03:12:00.936Z,91
2022-09-12T03:13:00.865Z,91
2022-09-12T03:14:00.947Z,91
2022-09-12T03:15:04.074Z,91
2022-09-12T03:16:00.958Z,91
2022-09-12T03:17:00.890Z,90
2022-09-12T03:18:01.930Z,90
2022-09-12T03:19:00.910Z,90
2022-09-12T03:20:04.258Z,90
2022-09-12T03:21:00.938Z,90
2022-09-12T03:22:01.034Z,90
2022-09-12T03:23:00.938Z,90
2022-09-12T03:24:01.022Z,90
2022-09-12T03:25:03.915Z,90
2022-09-12T03:26:01.218Z,90
2022-09-12T03:27:00.975Z,91
2022-09-12T03:28:01.039Z,91
2022-09-12T03:29:00.982Z,91
2022-09-12T03:30:05.953Z,91
2022-09-12T03:31:01.059Z,91
2022-09-12T03:32:02.076Z,91
2022-09-12T03:33:01.017Z,91
2022-09-12T03:34:01.130Z,91
2022-09-12T03:35:03.831Z,91
2022-09-12T03:36:01.111Z,91
2022-09-12T03:37:01.036Z,91
2022-09-12T03:38:01.159Z,91
2022-09-12T03:39:01.066Z,91
2022-09-12T03:40:04.382Z,91
2022-09-12T03:41:01.071Z,91
2022-09-12T03:42:01.138Z,91
2022-09-12T03:43:01.078Z,91
2022-09-12T03:44:01.206Z,91
2022-09-12T03:45:03.937Z,91
2022-09-12T03:46:01.687Z,91
2022-09-12T03:47:01.110Z,91
2022-09-12T03:48:01.181Z,91
2022-09-12T03:49:01.114Z,91
2022-09-12T03:50:04.553Z,91
2022-09-12T03:51:01.145Z,91
2022-09-12T03:52:01.211Z,91
2022-09-12T03:53:01.150Z,91
2022-09-12T03:54:01.256Z,91
2022-09-12T03:55:04.348Z,91
2022-09-12T03:56:01.260Z,91
2022-09-12T03:57:00.185Z,91
2022-09-12T03:58:00.285Z,91
2022-09-12T03:59:00.194Z,91
2022-09-12T04:00:03.460Z,91
2022-09-12T04:01:00.294Z,91
2022-09-12T04:02:00.344Z,91
2022-09-12T04:03:00.240Z,91
2022-09-12T04:04:00.298Z,91
2022-09-12T04:05:03.179Z,91
2022-09-12T04:06:00.337Z,91
2022-09-12T04:07:00.267Z,91
2022-09-12T04:08:00.349Z,91
2022-09-12T04:09:00.279Z,91
2022-09-12T04:10:04.013Z,91
2022-09-12T04:11:00.290Z,91
2022-09-12T04:12:00.373Z,91
2022-09-12T04:13:00.334Z,91
2022-09-12T04:14:00.424Z,91
2022-09-12T04:15:06.664Z,91
2022-09-12T04:16:00.406Z,91
2022-09-12T04:17:00.353Z,91
2022-09-12T04:18:05.691Z,91
2022-09-12T04:19:00.361Z,91
2022-09-12T04:20:03.779Z,91
2022-09-12T04:21:00.383Z,91
2022-09-12T04:22:00.435Z,91
2022-09-12T04:23:00.381Z,91
2022-09-12T04:24:00.468Z,91
2022-09-12T04:25:03.827Z,91
2022-09-12T04:26:00.539Z,91
2022-09-12T04:27:02.813Z,91
2022-09-12T04:28:00.500Z,91
2022-09-12T04:29:00.437Z,91
2022-09-12T04:30:03.847Z,91
2022-09-12T04:31:00.527Z,91
2022-09-12T04:32:01.724Z,91
2022-09-12T04:33:03.014Z,91
2022-09-12T04:34:00.523Z,91
2022-09-12T04:35:03.469Z,91
2022-09-12T04:36:00.568Z,91
2022-09-12T04:37:00.505Z,91
2022-09-12T04:38:00.599Z,91
2022-09-12T04:39:00.517Z,91
2022-09-12T04:40:05.076Z,91
2022-09-12T04:41:00.523Z,91
2022-09-12T04:42:00.634Z,91
2022-09-12T04:43:00.534Z,91
2022-09-12T04:44:00.639Z,91
2022-09-12T04:45:03.422Z,91
2022-09-12T04:46:01.667Z,91
2022-09-12T04:47:00.570Z,91
2022-09-12T04:48:00.642Z,91
2022-09-12T04:49:00.570Z,91
2022-09-12T04:50:06.840Z,91
2022-09-12T04:51:00.612Z,91
2022-09-12T04:52:00.679Z,91
2022-09-12T04:53:00.638Z,91
2022-09-12T04:56:33.517Z,90
2022-09-12T04:57:00.669Z,90
2022-09-12T04:58:00.757Z,90
2022-09-12T04:59:00.673Z,90
2022-09-12T05:00:07.077Z,90
2022-09-12T05:01:00.890Z,91
2022-09-12T05:03:00.723Z,91
2022-09-12T05:03:18.565Z,91
2022-09-12T05:04:01.654Z,90
2022-09-12T05:05:03.766Z,90
2022-09-12T05:06:00.819Z,90
2022-09-12T05:07:00.803Z,90
2022-09-12T05:08:00.842Z,90
2022-09-12T05:09:00.772Z,90
2022-09-12T05:12:05.312Z,90
2022-09-12T05:13:00.793Z,90
2022-09-12T05:14:00.921Z,90
2022-09-12T05:15:05.080Z,90
2022-09-12T05:16:00.873Z,90
2022-09-12T05:17:00.873Z,90
2022-09-12T05:18:01.660Z,90
2022-09-12T05:19:00.832Z,90
2022-09-12T05:20:06.136Z,90
2022-09-12T05:21:00.871Z,90
2022-09-12T05:22:01.670Z,90
2022-09-12T05:23:00.878Z,90
2022-09-12T05:24:00.963Z,90
2022-09-12T05:25:04.997Z,90
2022-09-12T05:26:00.988Z,90
2022-09-12T05:27:00.904Z,90
2022-09-12T05:28:00.991Z,90
2022-09-12T05:29:00.911Z,90
2022-09-12T05:30:05.307Z,90
2022-09-12T05:31:00.974Z,90
2022-09-12T05:32:01.044Z,90
2022-09-12T05:33:00.946Z,90
2022-09-12T05:34:01.014Z,90
2022-09-12T05:35:05.077Z,90
2022-09-12T05:36:01.652Z,90
2022-09-12T05:37:00.972Z,90
2022-09-12T05:38:01.092Z,90
2022-09-12T05:39:00.996Z,90
2022-09-12T05:40:07.790Z,90
2022-09-12T05:41:01.006Z,90
2022-09-12T05:42:01.093Z,90
2022-09-12T05:43:01.015Z,90
2022-09-12T05:44:01.109Z,90
2022-09-12T05:45:04.055Z,90
2022-09-12T05:46:01.237Z,90
2022-09-12T05:47:01.056Z,90
2022-09-12T05:48:01.138Z,90
2022-09-12T05:49:01.061Z,89
2022-09-12T05:50:04.477Z,89
2022-09-12T05:51:01.101Z,88
2022-09-12T05:52:01.165Z,88
2022-09-12T05:53:01.106Z,88
2022-09-12T05:54:01.692Z,88
2022-09-12T05:55:04.003Z,88
2022-09-12T05:56:01.712Z,88
2022-09-12T05:57:01.144Z,87
2022-09-12T05:58:01.199Z,87
2022-09-12T05:59:01.149Z,87
2022-09-12T06:00:04.396Z,87
2022-09-12T06:01:01.232Z,87
2022-09-12T06:02:01.402Z,86
2022-09-12T06:03:01.193Z,86
2022-09-12T06:04:01.657Z,86
2022-09-12T06:05:04.921Z,86
2022-09-12T06:06:01.335Z,86
2022-09-12T06:07:01.217Z,86
2022-09-12T06:08:01.746Z,86
2022-09-12T06:09:01.240Z,86
2022-09-12T06:10:05.703Z,86
2022-09-12T06:11:02.375Z,86
2022-09-12T06:12:01.665Z,85
2022-09-12T06:13:01.261Z,85
2022-09-12T06:14:01.382Z,85
2022-09-12T06:15:07.638Z,85
2022-09-12T06:16:01.655Z,85
2022-09-12T06:17:01.354Z,85
2022-09-12T06:18:01.528Z,85
2022-09-12T06:19:01.315Z,85
2022-09-12T06:20:05.032Z,84
2022-09-12T06:21:01.349Z,84
2022-09-12T06:22:01.415Z,84
2022-09-12T06:23:01.346Z,84
2022-09-12T06:24:01.671Z,83
2022-09-12T06:25:05.746Z,83
2022-09-12T06:26:01.428Z,83
2022-09-12T06:27:01.415Z,83
2022-09-12T06:28:01.672Z,83
2022-09-12T06:29:01.388Z,83
2022-09-12T06:30:04.979Z,83
2022-09-12T06:31:01.596Z,83
2022-09-12T06:32:01.691Z,83
2022-09-12T06:33:01.427Z,83
2022-09-12T06:34:01.659Z,83
2022-09-12T06:35:04.410Z,83
2022-09-12T06:36:01.700Z,83
2022-09-12T06:37:01.472Z,83
2022-09-12T06:38:01.518Z,83
2022-09-12T06:39:01.496Z,83
2022-09-12T06:40:06.141Z,83
2022-09-12T06:41:01.472Z,83
2022-09-12T06:42:01.546Z,83
2022-09-12T06:43:01.510Z,83
2022-09-12T06:44:01.672Z,83
2022-09-12T06:45:04.831Z,83
2022-09-12T06:46:01.641Z,83
2022-09-12T06:47:01.564Z,83
2022-09-12T06:48:01.721Z,83
2022-09-12T06:49:01.541Z,83
2022-09-12T06:50:06.072Z,83
2022-09-12T06:51:01.548Z,83
2022-09-12T06:52:01.707Z,83
2022-09-12T06:53:00.644Z,83
2022-09-12T06:54:00.626Z,82
2022-09-12T06:55:03.560Z,82
2022-09-12T06:56:01.680Z,82
2022-09-12T06:57:00.585Z,82
2022-09-12T06:58:00.709Z,82
2022-09-12T06:59:00.594Z,82
2022-09-12T07:00:05.239Z,82
2022-09-12T07:01:01.653Z,82
2022-09-12T07:02:01.729Z,81
2022-09-12T07:03:01.650Z,81
2022-09-12T07:04:01.700Z,81
2022-09-12T07:05:05.837Z,82
2022-09-12T07:06:01.798Z,82
2022-09-12T07:07:01.771Z,81
2022-09-12T07:08:01.727Z,81
2022-09-12T07:09:01.674Z,80
2022-09-12T07:10:20.296Z,80
2022-09-12T07:11:01.705Z,80
2022-09-12T07:12:01.794Z,79
2022-09-12T07:13:01.750Z,79
2022-09-12T07:14:01.781Z,79
2022-09-12T07:15:06.500Z,80
2022-09-12T07:16:01.784Z,80
2022-09-12T07:17:01.862Z,80
2022-09-12T07:18:01.860Z,80
2022-09-12T07:19:01.755Z,80
2022-09-12T07:20:07.143Z,79
2022-09-12T07:21:01.785Z,79
2022-09-12T07:22:00.921Z,79
2022-09-12T07:23:00.810Z,79
2022-09-12T07:24:01.721Z,79
2022-09-12T07:25:04.008Z,79
2022-09-12T07:26:00.887Z,79
2022-09-12T07:27:00.845Z,79
2022-09-12T07:28:01.677Z,78
2022-09-12T07:29:19.104Z,78
2022-09-12T07:30:06.170Z,78
2022-09-12T07:31:00.899Z,78
2022-09-12T07:32:01.682Z,78
2022-09-12T07:33:00.884Z,78
2022-09-12T07:34:00.941Z,78
2022-09-12T07:35:03.984Z,79
2022-09-12T07:36:01.747Z,79
2022-09-12T07:37:00.908Z,79
2022-09-12T07:38:01.420Z,79
2022-09-12T07:39:01.019Z,79
2022-09-12T07:40:05.392Z,79
2022-09-12T07:41:01.095Z,78
2022-09-12T07:42:01.042Z,78
2022-09-12T07:43:00.950Z,77
2022-09-12T07:44:01.888Z,77
2022-09-12T07:45:05.425Z,77
2022-09-12T07:46:01.110Z,77
2022-09-12T07:47:00.990Z,77
2022-09-12T07:48:01.715Z,77
2022-09-12T07:49:00.998Z,77
2022-09-12T07:50:04.413Z,77
2022-09-12T07:51:01.017Z,77
2022-09-12T07:52:01.690Z,77
2022-09-12T07:53:01.146Z,77
2022-09-12T07:54:01.171Z,77
2022-09-12T07:55:04.618Z,76
2022-09-12T07:56:01.729Z,76
2022-09-12T07:57:01.065Z,76
2022-09-12T07:58:01.132Z,76
2022-09-12T07:59:01.093Z,76
2022-09-12T08:00:05.504Z,76
2022-09-12T08:01:00.145Z,76
2022-09-12T08:02:00.167Z,76
2022-09-12T08:03:00.105Z,76
2022-09-12T08:04:01.711Z,75
2022-09-12T08:05:06.846Z,75
2022-09-12T08:06:00.210Z,76
2022-09-12T08:07:00.291Z,76
2022-09-12T08:08:01.688Z,75
2022-09-12T08:09:00.164Z,75
2022-09-12T08:10:06.497Z,75
2022-09-12T08:11:00.203Z,75
2022-09-12T08:12:01.679Z,75
2022-09-12T08:13:00.188Z,75
2022-09-12T08:14:00.282Z,75
2022-09-12T08:15:03.339Z,75
2022-09-12T08:16:01.772Z,75
2022-09-12T08:17:00.221Z,75
2022-09-12T08:18:00.350Z,75
2022-09-12T08:19:00.320Z,75
2022-09-12T08:20:04.588Z,75
2022-09-12T08:21:00.305Z,74
2022-09-12T08:22:00.344Z,74
2022-09-12T08:23:00.255Z,74
2022-09-12T08:24:01.701Z,74
2022-09-12T08:25:03.091Z,74
2022-09-12T08:26:04.133Z,74
2022-09-12T08:27:00.399Z,74
2022-09-12T08:28:01.765Z,73
2022-09-12T08:29:00.312Z,73
2022-09-12T08:30:04.622Z,73
2022-09-12T08:31:00.416Z,73
2022-09-12T08:32:01.688Z,73
2022-09-12T08:33:00.347Z,72
2022-09-12T08:34:00.459Z,72
2022-09-12T08:35:03.377Z,72
2022-09-12T08:36:01.701Z,73
2022-09-12T08:37:00.366Z,73
2022-09-12T08:38:00.440Z,73
2022-09-12T08:39:00.675Z,73
2022-09-12T08:40:03.910Z,73
2022-09-12T08:41:00.396Z,73
2022-09-12T08:42:00.574Z,73
2022-09-12T08:43:00.407Z,72
2022-09-12T08:44:00.475Z,72
2022-09-12T08:45:03.214Z,72
2022-09-12T08:46:00.601Z,71
2022-09-12T08:47:00.441Z,71
2022-09-12T08:48:00.720Z,70
2022-09-12T08:49:00.458Z,70
2022-09-12T08:50:05.032Z,70
2022-09-12T08:51:00.481Z,70
2022-09-12T08:52:00.565Z,70
2022-09-12T08:53:00.493Z,70
2022-09-12T08:54:01.696Z,70
2022-09-12T08:55:03.593Z,70
2022-09-12T08:56:01.702Z,69
2022-09-12T08:57:00.521Z,69
2022-09-12T08:58:00.645Z,69
2022-09-12T08:59:00.574Z,69
2022-09-12T09:00:06.701Z,69
2022-09-12T09:01:01.538Z,69
2022-09-12T09:02:02.457Z,69
2022-09-12T09:03:01.613Z,69
2022-09-12T09:04:02.779Z,69
2022-09-12T09:05:05.674Z,69
2022-09-12T09:06:01.786Z,69
2022-09-12T09:07:01.765Z,69
2022-09-12T09:08:03.531Z,69
2022-09-12T09:09:01.604Z,69
2022-09-12T09:10:07.402Z,69
2022-09-12T09:11:01.626Z,68
2022-09-12T09:12:02.381Z,68
2022-09-12T09:13:01.674Z,68
2022-09-12T09:14:05.003Z,68
2022-09-12T09:15:06.486Z,68
2022-09-12T09:16:01.845Z,68
2022-09-12T09:17:01.707Z,68
2022-09-12T09:18:01.746Z,68
2022-09-12T09:19:01.681Z,68
2022-09-12T09:20:07.112Z,68
2022-09-12T09:21:01.711Z,68
2022-09-12T09:22:01.763Z,68
2022-09-12T09:23:01.719Z,68
2022-09-12T09:24:01.848Z,68
2022-09-12T09:25:04.754Z,68
2022-09-12T09:26:01.820Z,67
2022-09-12T09:27:01.772Z,67
2022-09-12T09:28:01.818Z,67
2022-09-12T09:29:01.826Z,67
2022-09-12T09:30:06.324Z,67
2022-09-12T09:31:01.880Z,66
2022-09-12T09:32:01.868Z,66
2022-09-12T09:33:01.866Z,66
2022-09-12T09:34:01.847Z,66
2022-09-12T09:35:06.296Z,66
2022-09-12T09:36:02.056Z,66
2022-09-12T09:37:01.853Z,66
2022-09-12T09:38:01.988Z,66
2022-09-12T09:39:01.942Z,66
2022-09-12T09:40:05.426Z,66
2022-09-12T09:41:00.961Z,66
2022-09-12T09:42:01.736Z,66
2022-09-12T09:43:00.902Z,66
2022-09-12T09:44:01.174Z,65
2022-09-12T09:45:05.432Z,65
2022-09-12T09:46:01.750Z,65
2022-09-12T09:47:01.008Z,65
2022-09-12T09:48:01.311Z,65
2022-09-12T09:49:01.888Z,65
2022-09-12T09:50:04.344Z,64
2022-09-12T09:51:00.921Z,64
2022-09-12T09:52:01.354Z,63
2022-09-12T09:53:00.930Z,63
2022-09-12T09:54:01.837Z,63
2022-09-12T09:55:05.583Z,63
2022-09-12T09:56:01.769Z,62
2022-09-12T09:57:00.969Z,62
2022-09-12T09:58:01.402Z,62
2022-09-12T09:59:00.973Z,62
2022-09-12T10:00:05.426Z,62
2022-09-12T10:01:00.139Z,62
2022-09-12T10:02:00.120Z,61
2022-09-12T10:03:00.096Z,61
2022-09-12T10:04:01.718Z,61
2022-09-12T10:05:03.329Z,61
2022-09-12T10:06:00.115Z,61
2022-09-12T10:07:00.319Z,61
2022-09-12T10:08:01.712Z,61
2022-09-12T10:09:00.052Z,61
2022-09-12T10:10:03.281Z,60
2022-09-12T10:11:00.068Z,60
2022-09-12T10:12:02.178Z,59
2022-09-12T10:13:00.082Z,59
2022-09-12T10:14:00.144Z,59
2022-09-12T10:15:03.149Z,59
2022-09-12T10:16:01.788Z,59
2022-09-12T10:17:00.104Z,59
2022-09-12T10:18:00.206Z,59
2022-09-12T10:19:00.126Z,58
2022-09-12T10:20:20.420Z,58
2022-09-12T10:21:00.141Z,58
2022-09-12T10:22:00.183Z,58
2022-09-12T10:23:00.201Z,58
2022-09-12T10:24:01.746Z,57
2022-09-12T10:25:03.279Z,57
2022-09-12T10:26:00.229Z,57
2022-09-12T10:27:00.214Z,58
2022-09-12T10:28:01.729Z,58
2022-09-12T10:29:00.184Z,58
2022-09-12T10:30:03.622Z,58
2022-09-12T10:31:00.237Z,58
2022-09-12T10:32:02.123Z,58
2022-09-12T10:33:00.220Z,58
2022-09-12T10:34:00.275Z,56
2022-09-12T10:35:03.434Z,56
2022-09-12T10:36:01.763Z,56
2022-09-12T10:37:00.336Z,56
2022-09-12T10:38:00.396Z,56
2022-09-12T10:39:00.254Z,55
2022-09-12T10:40:05.124Z,55
2022-09-12T10:41:00.401Z,55
2022-09-12T10:42:00.656Z,54
2022-09-12T10:43:00.286Z,54
2022-09-12T10:44:01.067Z,54
2022-09-12T10:45:04.633Z,53
2022-09-12T10:46:00.558Z,53
2022-09-12T10:47:00.319Z,53
2022-09-12T10:48:05.507Z,53
2022-09-12T10:49:00.369Z,53
2022-09-12T10:50:05.964Z,53
2022-09-12T10:51:00.368Z,53
2022-09-12T10:52:00.524Z,53
2022-09-12T10:53:00.369Z,53
2022-09-12T10:54:00.668Z,53
2022-09-12T10:55:03.384Z,52
2022-09-12T10:56:02.829Z,52
2022-09-12T10:57:00.411Z,52
2022-09-12T10:58:01.034Z,53
2022-09-12T10:59:00.422Z,53
2022-09-12T11:00:04.096Z,53
2022-09-12T11:01:00.504Z,53
2022-09-12T11:02:01.128Z,52
2022-09-12T11:03:00.460Z,52
2022-09-12T11:04:01.810Z,52
2022-09-12T11:05:03.525Z,51
2022-09-12T11:06:01.901Z,51
2022-09-12T11:07:00.512Z,51
2022-09-12T11:08:00.562Z,50
2022-09-12T11:09:00.504Z,50
2022-09-12T11:10:04.890Z,51
2022-09-12T11:11:00.531Z,51
2022-09-12T11:12:01.257Z,51
2022-09-12T11:13:00.531Z,51
2022-09-12T11:14:00.634Z,51
2022-09-12T11:15:03.611Z,51
2022-09-12T11:16:00.692Z,51
2022-09-12T11:17:00.566Z,51
2022-09-12T11:18:01.506Z,50
2022-09-12T11:19:00.609Z,50
2022-09-12T11:20:05.243Z,51
2022-09-12T11:21:00.682Z,51
2022-09-12T11:22:01.696Z,51
2022-09-12T11:23:00.616Z,51
2022-09-12T11:24:01.856Z,51
2022-09-12T11:25:03.432Z,51
2022-09-12T11:26:00.735Z,51
2022-09-12T11:27:00.664Z,51
2022-09-12T11:28:00.712Z,48
2022-09-12T11:29:00.649Z,48
2022-09-12T11:30:05.030Z,48
2022-09-12T11:31:00.837Z,48
2022-09-12T11:32:00.746Z,48
2022-09-12T11:33:00.689Z,48
2022-09-12T11:34:00.748Z,48
2022-09-12T11:35:03.604Z,49
2022-09-12T11:36:00.819Z,49
2022-09-12T11:37:00.699Z,48
2022-09-12T11:38:01.744Z,48
2022-09-12T11:39:00.712Z,48
2022-09-12T11:40:04.186Z,48
2022-09-12T11:41:00.728Z,48
2022-09-12T11:42:00.845Z,48
2022-09-12T11:43:00.773Z,48
2022-09-12T11:44:00.812Z,48
2022-09-12T11:45:05.526Z,48
2022-09-12T11:46:00.895Z,48
2022-09-12T11:47:00.799Z,47
2022-09-12T11:48:00.913Z,47
2022-09-12T11:49:00.810Z,47
2022-09-12T11:50:04.159Z,47
2022-09-12T11:51:00.839Z,47
2022-09-12T11:52:01.789Z,47
2022-09-12T11:53:00.843Z,45
2022-09-12T11:54:00.957Z,45
2022-09-12T11:55:04.928Z,46
2022-09-12T11:56:01.815Z,46
2022-09-12T11:57:00.877Z,46
2022-09-12T11:58:00.941Z,45
2022-09-12T11:59:00.876Z,45
2022-09-12T12:00:04.397Z,45
2022-09-12T12:01:00.952Z,44
2022-09-12T12:02:00.995Z,44
2022-09-12T12:03:00.924Z,44
2022-09-12T12:04:00.000Z,44
2022-09-12T12:05:02.961Z,44
2022-09-12T12:06:00.019Z,44
2022-09-12T12:06:59.955Z,44
2022-09-12T12:08:00.055Z,44
2022-09-12T12:08:59.974Z,44
2022-09-12T12:10:03.503Z,44
2022-09-12T12:10:59.992Z,44
2022-09-12T12:12:00.057Z,44
2022-09-12T12:13:00.001Z,46
2022-09-12T12:14:00.058Z,46
2022-09-12T12:15:04.179Z,46
2022-09-12T12:16:00.221Z,45
2022-09-12T12:17:00.028Z,45
2022-09-12T12:18:00.107Z,45
2022-09-12T12:19:00.046Z,45
2022-09-12T12:20:08.515Z,45
2022-09-12T12:21:00.231Z,44
2022-09-12T12:22:00.121Z,44
2022-09-12T12:23:00.080Z,44
2022-09-12T12:24:00.182Z,44
2022-09-12T12:25:03.154Z,44
2022-09-12T12:26:00.162Z,44
2022-09-12T12:27:00.155Z,44
2022-09-12T12:28:01.906Z,44
2022-09-12T12:29:00.137Z,44
2022-09-12T12:30:03.520Z,44
2022-09-12T12:31:01.211Z,43
2022-09-12T12:32:01.238Z,43
2022-09-12T12:33:01.170Z,43
2022-09-12T12:34:01.232Z,44
2022-09-12T12:35:04.356Z,44
2022-09-12T12:36:01.249Z,43
2022-09-12T12:37:05.546Z,43
2022-09-12T12:38:00.302Z,43
2022-09-12T12:39:00.201Z,42
2022-09-12T12:40:04.974Z,42
2022-09-12T12:41:00.214Z,43
2022-09-12T12:42:01.762Z,43
2022-09-12T12:43:00.242Z,43
2022-09-12T12:44:00.333Z,42
2022-09-12T12:45:04.459Z,42
2022-09-12T12:46:00.378Z,42
2022-09-12T12:47:00.269Z,43
2022-09-12T12:48:00.344Z,43
2022-09-12T12:49:00.289Z,42
2022-09-12T12:50:03.497Z,42
2022-09-12T12:51:00.297Z,42
2022-09-12T12:52:00.358Z,42
2022-09-12T12:53:00.314Z,42
2022-09-12T12:54:00.390Z,42
2022-09-12T12:55:04.473Z,42
2022-09-12T12:56:01.803Z,42
2022-09-12T12:57:00.347Z,42
2022-09-12T12:58:00.376Z,42
2022-09-12T12:59:00.345Z,41
2022-09-12T13:00:04.007Z,41
2022-09-12T13:01:00.412Z,41
2022-09-12T13:02:00.515Z,41
2022-09-12T13:03:00.406Z,41
2022-09-12T13:04:00.468Z,40
2022-09-12T13:05:03.606Z,40
2022-09-12T13:06:00.486Z,41
2022-09-12T13:07:03.502Z,41
2022-09-12T13:08:00.534Z,41
2022-09-12T13:09:00.452Z,40
2022-09-12T13:10:04.815Z,40
2022-09-12T13:11:00.461Z,40
2022-09-12T13:12:00.561Z,40
2022-09-12T13:13:00.501Z,40
2022-09-12T13:14:00.528Z,41
2022-09-12T13:15:03.582Z,41
2022-09-12T13:16:00.616Z,41
2022-09-12T13:17:00.513Z,40
2022-09-12T13:18:00.579Z,40
2022-09-12T13:19:00.531Z,40
2022-09-12T13:20:26.582Z,40
2022-09-12T13:21:00.535Z,39
2022-09-12T13:22:00.599Z,39
2022-09-12T13:23:00.537Z,39
2022-09-12T13:24:01.983Z,39
2022-09-12T13:25:03.644Z,39
2022-09-12T13:26:00.629Z,38
2022-09-12T13:27:00.576Z,38
2022-09-12T13:28:00.667Z,38
2022-09-12T13:29:00.594Z,37
2022-09-12T13:30:05.037Z,37
2022-09-12T13:31:00.675Z,38
2022-09-12T13:32:00.675Z,38
2022-09-12T13:33:00.634Z,38
2022-09-12T13:34:00.700Z,38
2022-09-12T13:35:05.180Z,38
2022-09-12T13:36:00.729Z,38
2022-09-12T13:37:00.670Z,38
2022-09-12T13:38:00.736Z,38
2022-09-12T13:39:00.688Z,38
2022-09-12T13:40:05.589Z,38
2022-09-12T13:41:00.714Z,38
2022-09-12T13:42:00.797Z,38
2022-09-12T13:43:00.701Z,38
2022-09-12T13:44:00.789Z,38
2022-09-12T13:45:03.842Z,38
2022-09-12T13:46:01.867Z,38
2022-09-12T13:47:00.733Z,39
2022-09-12T13:48:00.811Z,39
2022-09-12T13:49:00.748Z,39
2022-09-12T13:50:05.051Z,38
2022-09-12T13:51:00.778Z,38
2022-09-12T13:52:00.875Z,38
2022-09-12T13:53:00.795Z,38
2022-09-12T13:54:00.861Z,38
2022-09-12T13:55:03.702Z,39
2022-09-12T13:56:01.772Z,39
2022-09-12T13:57:00.816Z,38
2022-09-12T13:58:00.913Z,38
2022-09-12T13:59:00.826Z,38
2022-09-12T14:00:06.790Z,38
2022-09-12T14:01:00.869Z,38
2022-09-12T14:02:00.985Z,38
2022-09-12T14:03:00.905Z,38
2022-09-12T14:04:00.967Z,38
2022-09-12T14:05:04.104Z,39
2022-09-12T14:06:00.968Z,39
2022-09-12T14:07:00.913Z,39
2022-09-12T14:08:00.985Z,39
2022-09-12T14:09:00.922Z,39
2022-09-12T14:10:05.288Z,38
2022-09-12T14:11:00.941Z,38
2022-09-12T14:12:01.023Z,38
2022-09-12T14:13:00.980Z,38
2022-09-12T14:14:00.047Z,38
2022-09-12T14:15:03.155Z,38
2022-09-12T14:16:00.222Z,38
2022-09-12T14:17:00.019Z,37
2022-09-12T14:18:01.823Z,37
2022-09-12T14:19:00.027Z,37